createdAt,value
2018-05-19T00:00:03.879Z,12.25
2018-05-19T00:01:06.428Z,13.57
2018-05-19T00:02:09.114Z,12.98
2018-05-19T00:03:12.454Z,12.82
2018-05-19T00:04:14.999Z,13.93
2018-05-19T00:05:17.524Z,13.62
2018-05-19T00:06:20.791Z,11.35
2018-05-19T00:07:24.063Z,13.40
2018-05-19T00:08:26.575Z,12.75
2018-05-19T00:09:29.092Z,12.20
2018-05-19T00:10:31.597Z,13.15
2018-05-19T00:11:34.852Z,12.98
2018-05-19T00:12:37.346Z,12.37
2018-05-19T00:13:40.607Z,12.80
2018-05-19T00:14:43.128Z,11.90
2018-05-19T00:15:46.432Z,11.25
2018-05-19T00:16:48.923Z,13.62
2018-05-19T00:17:51.418Z,11.75
2018-05-19T00:18:54.711Z,13.13
2018-05-19T00:19:57.208Z,13.25
2018-05-19T00:21:00.503Z,13.55
2018-05-19T00:22:03.774Z,13.00
2018-05-19T00:23:07.043Z,14.45
2018-05-19T00:24:09.596Z,13.13
2018-05-19T00:25:12.104Z,12.95
2018-05-19T00:26:15.395Z,13.68
2018-05-19T00:28:47.069Z,12.90
2018-05-19T00:32:45.848Z,12.10
2018-05-19T00:33:48.343Z,13.77
2018-05-19T00:34:50.838Z,12.23
2018-05-19T00:35:53.349Z,13.82
2018-05-19T00:36:55.850Z,13.95
2018-05-19T00:37:58.340Z,13.55
2018-05-19T00:39:01.618Z,14.27
2018-05-19T00:40:04.876Z,14.07
2018-05-19T00:41:07.387Z,14.93
2018-05-19T00:42:10.691Z,12.50
2018-05-19T00:43:13.194Z,13.07
2018-05-19T00:44:15.698Z,14.00
2018-05-19T00:45:18.218Z,13.48
2018-05-19T00:46:20.721Z,13.50
2018-05-19T00:47:23.229Z,14.85
2018-05-19T00:48:26.495Z,15.57
2018-05-19T00:49:29.770Z,15.43
2018-05-19T00:50:32.278Z,14.13
2018-05-19T00:51:35.522Z,15.43
2018-05-19T00:52:38.023Z,14.27
2018-05-19T00:53:41.285Z,15.50
2018-05-19T00:54:55.713Z,16.15
2018-05-19T00:55:58.215Z,16.10
2018-05-19T00:57:00.717Z,15.15
2018-05-19T00:58:03.995Z,14.07
2018-05-19T00:59:07.253Z,16.00
2018-05-19T01:00:09.753Z,15.82
2018-05-19T01:01:12.421Z,16.65
2018-05-19T01:02:14.910Z,16.27
2018-05-19T01:03:18.174Z,15.43
2018-05-19T01:04:20.660Z,16.30
2018-05-19T01:05:23.928Z,16.92
2018-05-19T01:06:26.443Z,15.30
2018-05-19T01:07:28.949Z,16.60
2018-05-19T01:08:31.427Z,15.50
2018-05-19T01:09:33.941Z,15.40
2018-05-19T01:10:36.446Z,16.80
2018-05-19T01:11:38.998Z,15.38
2018-05-19T01:12:41.518Z,15.13
2018-05-19T01:13:44.028Z,15.85
2018-05-19T01:14:46.522Z,15.88
2018-05-19T01:15:49.020Z,17.08
2018-05-19T01:16:51.517Z,16.35
2018-05-19T01:17:54.804Z,16.65
2018-05-19T01:18:58.074Z,15.52
2018-05-19T01:20:00.580Z,18.23
2018-05-19T01:21:03.077Z,17.08
2018-05-19T01:22:05.587Z,17.48
2018-05-19T01:23:08.091Z,16.60
2018-05-19T01:24:10.617Z,16.37
2018-05-19T01:25:13.133Z,17.55
2018-05-19T01:26:15.620Z,16.87
2018-05-19T01:27:18.118Z,19.33
2018-05-19T01:28:20.625Z,18.37
2018-05-19T01:29:24.973Z,18.80
2018-05-19T01:30:27.493Z,18.27
2018-05-19T01:31:29.983Z,20.83
2018-05-19T01:32:33.230Z,18.37
2018-05-19T01:33:35.737Z,18.23
2018-05-19T01:34:39.017Z,19.17
2018-05-19T01:35:42.293Z,19.75
2018-05-19T01:36:44.788Z,19.10
2018-05-19T01:37:48.098Z,19.60
2018-05-19T01:38:51.354Z,19.10
2018-05-19T01:39:54.629Z,19.05
2018-05-19T01:40:57.124Z,20.20
2018-05-19T01:42:00.397Z,22.95
2018-05-19T01:43:03.658Z,20.33
2018-05-19T01:44:06.187Z,20.40
2018-05-19T01:45:08.721Z,18.98
2018-05-19T01:46:11.232Z,20.80
2018-05-19T01:47:13.744Z,19.67
2018-05-19T01:48:16.237Z,21.58
2018-05-19T01:49:18.739Z,21.60
2018-05-19T01:50:21.250Z,21.02
2018-05-19T01:51:23.762Z,20.25
2018-05-19T01:52:27.017Z,20.50
2018-05-19T01:53:29.835Z,20.75
2018-05-19T01:54:32.353Z,20.25
2018-05-19T01:55:34.859Z,21.05
2018-05-19T01:56:38.163Z,20.77
2018-05-19T01:57:40.690Z,21.95
2018-05-19T01:58:43.300Z,21.95
2018-05-19T01:59:46.615Z,21.70
2018-05-19T02:00:49.128Z,22.60
2018-05-19T02:01:51.632Z,21.70
2018-05-19T02:02:54.903Z,21.77
2018-05-19T02:03:57.389Z,23.25
2018-05-19T02:05:00.683Z,23.30
2018-05-19T02:06:03.188Z,22.40
2018-05-19T02:07:05.710Z,21.67
2018-05-19T02:08:08.970Z,21.20
2018-05-19T02:09:11.465Z,22.70
2018-05-19T02:10:14.754Z,21.30
2018-05-19T02:11:18.010Z,22.50
2018-05-19T02:12:20.510Z,23.12
2018-05-19T02:13:23.779Z,21.85
2018-05-19T02:14:26.281Z,21.98
2018-05-19T02:15:28.835Z,22.05
2018-05-19T02:16:32.095Z,21.80
2018-05-19T02:17:34.618Z,22.35
2018-05-19T02:18:37.126Z,21.77
2018-05-19T02:19:39.646Z,21.83
2018-05-19T02:20:43.019Z,21.30
2018-05-19T02:21:45.460Z,20.75
2018-05-19T02:22:47.947Z,20.52
2018-05-19T02:23:50.437Z,21.92
2018-05-19T02:24:53.699Z,21.23
2018-05-19T02:25:56.198Z,20.33
2018-05-19T02:26:59.467Z,21.23
2018-05-19T02:28:02.720Z,21.73
2018-05-19T02:29:05.212Z,21.42
2018-05-19T02:30:08.672Z,19.25
2018-05-19T02:31:11.182Z,21.15
2018-05-19T02:32:13.675Z,20.10
2018-05-19T02:33:16.928Z,19.40
2018-05-19T02:34:19.431Z,20.80
2018-05-19T02:35:22.719Z,19.37
2018-05-19T02:36:25.209Z,19.65
2018-05-19T02:37:28.485Z,19.98
2018-05-19T02:38:31.745Z,20.35
2018-05-19T02:39:34.251Z,19.27
2018-05-19T02:40:37.559Z,20.08
2018-05-19T02:54:40.848Z,15.88
2018-05-19T02:55:43.367Z,19.15
2018-05-19T02:56:45.876Z,20.60
2018-05-19T02:57:48.383Z,18.35
2018-05-19T02:58:51.662Z,21.45
2018-05-19T02:59:54.930Z,21.75
2018-05-19T03:00:57.450Z,22.13
2018-05-19T03:02:00.898Z,24.42
2018-05-19T03:03:03.463Z,24.20
2018-05-19T03:04:05.925Z,22.23
2018-05-19T03:05:08.436Z,23.92
2018-05-19T03:06:10.954Z,24.17
2018-05-19T03:07:13.500Z,21.90
2018-05-19T03:08:16.019Z,21.77
2018-05-19T03:09:19.281Z,21.83
2018-05-19T03:10:21.795Z,21.10
2018-05-19T03:11:25.048Z,21.05
2018-05-19T03:12:27.581Z,22.50
2018-05-19T03:13:30.095Z,19.87
2018-05-19T03:14:32.580Z,19.08
2018-05-19T03:15:35.101Z,20.25
2018-05-19T03:16:37.597Z,19.55
2018-05-19T03:17:40.167Z,17.87
2018-05-19T03:18:42.668Z,19.23
2018-05-19T03:19:45.930Z,19.25
2018-05-19T03:20:48.431Z,18.10
2018-05-19T03:21:50.920Z,18.00
2018-05-19T03:22:53.439Z,18.98
2018-05-19T03:23:55.948Z,19.15
2018-05-19T03:24:59.369Z,18.33
2018-05-19T03:26:01.869Z,18.30
2018-05-19T03:27:04.358Z,19.17
2018-05-19T03:28:06.859Z,18.40
2018-05-19T03:29:10.135Z,17.98
2018-05-19T03:30:13.403Z,17.50
2018-05-19T03:31:15.893Z,17.10
2018-05-19T03:32:18.385Z,18.67
2018-05-19T03:33:20.886Z,17.52
2018-05-19T03:34:23.373Z,16.20
2018-05-19T03:35:25.874Z,19.60
2018-05-19T03:36:29.128Z,16.85
2018-05-19T03:37:31.626Z,19.08
2018-05-19T03:38:34.134Z,16.65
2018-05-19T03:39:36.628Z,17.70
2018-05-19T03:40:39.133Z,17.60
2018-05-19T03:41:41.625Z,18.58
2018-05-19T03:42:44.886Z,17.45
2018-05-19T03:43:47.399Z,17.12
2018-05-19T03:44:49.885Z,17.23
2018-05-19T03:45:52.575Z,17.95
2018-05-19T03:46:55.089Z,16.62
2018-05-19T03:47:58.460Z,16.73
2018-05-19T03:49:01.771Z,17.58
2018-05-19T03:50:05.058Z,18.10
2018-05-19T03:51:08.313Z,18.23
2018-05-19T03:52:10.825Z,18.70
2018-05-19T03:53:13.353Z,17.55
2018-05-19T03:54:15.848Z,17.10
2018-05-19T03:55:19.182Z,17.90
2018-05-19T03:56:21.691Z,18.95
2018-05-19T03:57:37.619Z,15.52
2018-05-19T03:58:52.096Z,16.75
2018-05-19T04:00:06.624Z,17.15
2018-05-19T04:01:20.971Z,16.67
2018-05-19T04:02:35.457Z,17.45
2018-05-19T04:03:37.945Z,16.52
2018-05-19T04:04:40.436Z,16.30
2018-05-19T04:05:43.740Z,16.45
2018-05-19T04:06:47.025Z,18.05
2018-05-19T04:07:50.312Z,15.85
2018-05-19T04:08:53.585Z,17.35
2018-05-19T04:09:56.082Z,16.87
2018-05-19T04:10:59.901Z,17.75
2018-05-19T04:12:02.396Z,18.00
2018-05-19T04:13:04.893Z,17.23
2018-05-19T04:14:07.478Z,17.48
2018-05-19T04:15:09.964Z,15.60
2018-05-19T04:16:12.622Z,16.83
2018-05-19T04:17:15.880Z,16.12
2018-05-19T04:18:18.387Z,17.40
2018-05-19T04:19:21.656Z,18.90
2018-05-19T04:20:24.176Z,16.48
2018-05-19T04:21:26.678Z,16.48
2018-05-19T04:22:29.193Z,16.10
2018-05-19T04:23:32.462Z,16.15
2018-05-19T04:24:34.954Z,16.52
2018-05-19T04:25:37.468Z,16.37
2018-05-19T04:26:39.992Z,15.75
2018-05-19T04:27:44.626Z,14.65
2018-05-19T04:28:47.110Z,14.77
2018-05-19T04:29:49.601Z,16.08
2018-05-19T04:30:52.116Z,15.60
2018-05-19T04:31:55.382Z,15.68
2018-05-19T04:32:57.885Z,14.50
2018-05-19T04:34:00.404Z,14.75
2018-05-19T04:35:02.898Z,15.40
2018-05-19T04:36:05.420Z,14.07
2018-05-19T04:37:07.911Z,14.77
2018-05-19T04:38:10.411Z,14.77
2018-05-19T04:39:12.908Z,15.45
2018-05-19T04:40:15.429Z,15.02
2018-05-19T04:41:17.927Z,15.27
2018-05-19T04:42:21.179Z,15.55
2018-05-19T04:43:24.474Z,15.27
2018-05-19T04:44:26.966Z,15.48
2018-05-19T04:45:29.470Z,14.10
2018-05-19T04:46:32.039Z,14.57
2018-05-19T04:47:34.541Z,14.73
2018-05-19T04:48:37.041Z,14.52
2018-05-19T04:49:39.964Z,14.85
2018-05-19T04:50:42.451Z,14.63
2018-05-19T04:51:46.255Z,16.60
2018-05-19T04:52:48.770Z,14.80
2018-05-19T04:53:51.632Z,14.60
2018-05-19T04:54:55.630Z,15.10
2018-05-19T04:55:58.106Z,15.55
2018-05-19T04:57:00.612Z,14.30
2018-05-19T04:58:03.890Z,14.18
2018-05-19T04:59:07.137Z,13.60
2018-05-19T05:00:11.394Z,14.50
2018-05-19T05:01:14.638Z,13.65
2018-05-19T05:02:17.160Z,15.45
2018-05-19T05:03:20.433Z,15.07
2018-05-19T05:04:23.680Z,14.13
2018-05-19T05:05:26.207Z,13.15
2018-05-19T05:06:29.462Z,13.02
2018-05-19T05:07:31.976Z,13.55
2018-05-19T05:08:34.464Z,13.27
2018-05-19T05:09:36.948Z,13.23
2018-05-19T05:10:39.450Z,14.90
2018-05-19T05:11:41.939Z,13.32
2018-05-19T05:12:45.241Z,14.57
2018-05-19T05:13:47.826Z,12.57
2018-05-19T05:14:50.281Z,13.62
2018-05-19T05:15:52.794Z,13.00
2018-05-19T05:16:55.295Z,13.25
2018-05-19T05:17:58.582Z,12.48
2018-05-19T05:19:01.095Z,13.95
2018-05-19T05:20:03.630Z,13.38
2018-05-19T05:21:06.909Z,13.60
2018-05-19T05:22:09.659Z,13.57
2018-05-19T05:23:13.007Z,12.85
2018-05-19T05:24:16.058Z,13.55
2018-05-19T05:25:19.366Z,11.52
2018-05-19T05:26:22.637Z,12.82
2018-05-19T05:27:25.135Z,11.63
2018-05-19T05:28:27.660Z,11.35
2018-05-19T05:29:30.163Z,12.52
2018-05-19T05:30:33.465Z,10.93
2018-05-19T05:31:35.959Z,10.20
2018-05-19T05:32:38.478Z,11.30
2018-05-19T05:33:40.995Z,10.38
2018-05-19T05:34:43.497Z,12.43
2018-05-19T05:35:46.010Z,10.45
2018-05-19T05:36:49.277Z,10.68
2018-05-19T05:37:52.539Z,10.88
2018-05-19T05:38:55.065Z,11.05
2018-05-19T05:39:57.576Z,11.73
2018-05-19T05:41:00.084Z,10.40
2018-05-19T05:42:03.368Z,10.07
2018-05-19T05:43:06.649Z,11.05
2018-05-19T05:44:09.192Z,12.05
2018-05-19T05:45:11.760Z,11.02
2018-05-19T05:46:14.260Z,11.63
2018-05-19T05:47:16.798Z,9.90
2018-05-19T05:48:19.327Z,10.15
2018-05-19T05:49:22.592Z,10.65
2018-05-19T05:50:25.113Z,9.82
2018-05-19T05:51:27.599Z,10.60
2018-05-19T05:52:30.092Z,10.25
2018-05-19T05:53:32.613Z,9.85
2018-05-19T05:54:36.176Z,9.75
2018-05-19T05:55:38.691Z,10.60
2018-05-19T05:56:41.184Z,10.18
2018-05-19T05:57:43.706Z,9.50
2018-05-19T05:58:46.222Z,9.65
2018-05-19T05:59:48.715Z,9.27
2018-05-19T06:00:51.235Z,10.20
2018-05-19T06:01:53.752Z,10.15
2018-05-19T06:02:56.289Z,10.30
2018-05-19T06:03:58.800Z,10.20
2018-05-19T06:05:01.325Z,9.93
2018-05-19T06:06:03.832Z,9.75
2018-05-19T06:07:06.332Z,9.50
2018-05-19T06:08:09.656Z,9.75
2018-05-19T06:09:12.201Z,9.60
2018-05-19T06:10:15.477Z,8.93
2018-05-19T06:11:18.741Z,11.05
2018-05-19T06:12:21.367Z,8.57
2018-05-19T06:13:24.529Z,8.57
2018-05-19T06:14:27.031Z,7.70
2018-05-19T06:15:29.547Z,7.80
2018-05-19T06:16:32.051Z,7.55
2018-05-19T06:17:35.339Z,7.70
2018-05-19T06:18:38.637Z,7.70
2018-05-19T06:19:41.927Z,7.25
2018-05-19T06:20:45.205Z,7.60
2018-05-19T06:21:48.492Z,7.20
2018-05-19T06:22:51.749Z,7.05
2018-05-19T06:23:54.246Z,8.15
2018-05-19T06:24:57.572Z,7.78
2018-05-19T06:26:00.807Z,7.80
2018-05-19T06:27:03.315Z,7.75
2018-05-19T06:28:05.834Z,7.40
2018-05-19T06:29:08.345Z,6.97
2018-05-19T06:30:11.803Z,8.15
2018-05-19T06:31:14.302Z,8.13
2018-05-19T06:32:17.581Z,7.87
2018-05-19T06:33:20.096Z,8.00
2018-05-19T06:34:22.593Z,7.18
2018-05-19T06:35:25.110Z,7.57
2018-05-19T06:36:28.379Z,8.02
2018-05-19T06:37:30.877Z,8.10
2018-05-19T06:38:33.391Z,8.23
2018-05-19T06:39:35.887Z,7.35
2018-05-19T06:40:38.417Z,7.68
2018-05-19T06:41:40.939Z,7.40
2018-05-19T06:42:44.196Z,7.22
2018-05-19T06:43:46.699Z,7.55
2018-05-19T06:44:49.972Z,7.47
2018-05-19T06:45:52.687Z,8.30
2018-05-19T06:46:55.449Z,6.20
2018-05-19T06:47:58.829Z,6.12
2018-05-19T06:49:02.096Z,7.03
2018-05-19T06:50:06.165Z,6.62
2018-05-19T06:51:09.084Z,7.53
2018-05-19T06:52:11.621Z,8.55
2018-05-19T06:53:14.132Z,7.18
2018-05-19T06:54:17.415Z,7.80
2018-05-19T06:55:20.006Z,7.55
2018-05-19T06:56:22.518Z,7.03
2018-05-19T06:57:25.783Z,7.18
2018-05-19T06:58:28.773Z,9.15
2018-05-19T06:59:31.302Z,7.55
2018-05-19T07:00:33.841Z,7.57
2018-05-19T07:01:37.136Z,8.32
2018-05-19T07:02:40.441Z,7.30
2018-05-19T07:03:43.695Z,7.30
2018-05-19T07:04:46.224Z,7.62
2018-05-19T07:05:48.753Z,8.35
2018-05-19T07:06:51.261Z,10.43
2018-05-19T07:07:53.787Z,8.85
2018-05-19T07:08:56.291Z,7.35
2018-05-19T07:09:59.584Z,8.55
2018-05-19T07:11:02.860Z,8.00
2018-05-19T07:12:05.377Z,9.00
2018-05-19T07:13:08.022Z,8.70
2018-05-19T07:14:11.329Z,8.60
2018-05-19T07:15:13.855Z,7.70
2018-05-19T07:16:16.379Z,8.90
2018-05-19T07:17:19.149Z,8.02
2018-05-19T07:18:21.678Z,9.75
2018-05-19T07:19:24.213Z,8.75
2018-05-19T07:20:26.715Z,9.07
2018-05-19T07:21:30.714Z,8.90
2018-05-19T07:22:34.157Z,9.10
2018-05-19T07:23:37.554Z,9.57
2018-05-19T07:24:40.062Z,8.88
2018-05-19T07:25:42.578Z,8.55
2018-05-19T07:26:45.848Z,9.73
2018-05-19T07:27:48.368Z,8.35
2018-05-19T07:28:50.877Z,7.95
2018-05-19T07:29:53.445Z,7.85
2018-05-19T07:30:55.937Z,8.90
2018-05-19T07:31:59.210Z,8.18
2018-05-19T07:33:01.743Z,8.43
2018-05-19T07:34:04.255Z,7.72
2018-05-19T07:35:06.889Z,8.48
2018-05-19T07:36:09.517Z,8.13
2018-05-19T07:37:12.783Z,8.75
2018-05-19T07:38:16.072Z,8.50
2018-05-19T07:39:18.971Z,8.52
2018-05-19T07:40:22.258Z,8.80
2018-05-19T07:41:25.541Z,8.57
2018-05-19T07:42:28.803Z,8.10
2018-05-19T07:43:31.330Z,7.93
2018-05-19T07:44:33.844Z,7.77
2018-05-19T07:45:36.361Z,8.70
2018-05-19T07:46:39.853Z,8.13
2018-05-19T07:47:43.255Z,8.33
2018-05-19T07:48:45.749Z,7.37
2018-05-19T07:49:48.265Z,7.90
2018-05-19T07:50:50.785Z,6.70
2018-05-19T07:51:53.351Z,8.00
2018-05-19T07:52:55.880Z,6.90
2018-05-19T07:53:59.151Z,7.33
2018-05-19T07:55:01.668Z,7.70
2018-05-19T07:56:04.169Z,8.63
2018-05-19T07:57:06.686Z,7.83
2018-05-19T07:58:10.068Z,8.50
2018-05-19T07:59:12.570Z,8.00
2018-05-19T08:00:15.078Z,8.43
2018-05-19T08:01:17.592Z,7.50
2018-05-19T08:02:20.859Z,7.60
2018-05-19T08:03:23.359Z,7.27
2018-05-19T08:04:26.649Z,8.37
2018-05-19T08:05:29.150Z,8.53
2018-05-19T08:06:31.680Z,7.87
2018-05-19T08:07:34.970Z,7.83
2018-05-19T08:08:38.276Z,9.23
2018-05-19T08:09:40.794Z,7.90
2018-05-19T08:10:44.086Z,7.60
2018-05-19T08:11:46.606Z,8.50
2018-05-19T08:12:49.120Z,8.10
2018-05-19T08:13:51.654Z,8.30
2018-05-19T08:14:54.172Z,8.40
2018-05-19T08:15:56.714Z,8.57
2018-05-19T08:16:59.203Z,9.40
2018-05-19T08:18:01.720Z,8.60
2018-05-19T08:19:05.079Z,8.40
2018-05-19T08:20:08.274Z,8.10
2018-05-19T08:21:10.818Z,8.30
2018-05-19T08:22:13.330Z,8.60
2018-05-19T08:23:16.591Z,7.73
2018-05-19T08:24:19.104Z,8.43
2018-05-19T08:25:21.608Z,8.53
2018-05-19T08:26:24.108Z,9.63
2018-05-19T08:27:26.594Z,8.57
2018-05-19T08:28:29.955Z,8.57
2018-05-19T08:29:33.135Z,8.90
2018-05-19T08:30:35.783Z,7.67
2018-05-19T08:31:38.344Z,9.30
2018-05-19T08:32:40.851Z,8.53
2018-05-19T08:33:43.347Z,9.07
2018-05-19T08:34:46.623Z,9.67
2018-05-19T08:35:49.120Z,8.83
2018-05-19T08:36:52.385Z,8.27
2018-05-19T08:37:54.886Z,9.60
2018-05-19T08:38:57.381Z,9.17
2018-05-19T08:39:59.895Z,8.33
2018-05-19T08:41:02.398Z,8.83
2018-05-19T08:42:04.904Z,8.20
2018-05-19T08:43:07.442Z,7.63
2018-05-19T08:44:09.977Z,7.90
2018-05-19T08:45:12.573Z,7.83
2018-05-19T08:46:15.850Z,8.10
2018-05-19T08:47:19.149Z,9.13
2018-05-19T08:48:22.446Z,8.97
2018-05-19T08:49:24.974Z,10.23
2018-05-19T08:50:27.597Z,9.13
2018-05-19T08:51:30.864Z,9.73
2018-05-19T08:52:34.112Z,8.67
2018-05-19T08:53:36.617Z,9.87
2018-05-19T08:54:39.897Z,9.17
2018-05-19T08:55:42.431Z,8.80
2018-05-19T08:56:44.953Z,9.70
2018-05-19T08:57:48.225Z,9.00
2018-05-19T08:58:50.746Z,8.63
2018-05-19T08:59:53.228Z,9.13
2018-05-19T09:00:55.834Z,9.13
2018-05-19T09:01:58.334Z,9.60
2018-05-19T09:03:01.624Z,10.13
2018-05-19T09:04:04.202Z,11.10
2018-05-19T09:05:06.809Z,9.87
2018-05-19T09:06:09.368Z,9.90
2018-05-19T09:07:11.896Z,9.23
2018-05-19T09:08:15.167Z,8.90
2018-05-19T09:09:17.683Z,9.10
2018-05-19T09:10:20.187Z,9.17
2018-05-19T09:11:22.718Z,8.60
2018-05-19T09:12:25.250Z,10.23
2018-05-19T09:13:29.265Z,9.77
2018-05-19T09:14:31.773Z,9.90
2018-05-19T09:15:34.307Z,11.10
2018-05-19T09:16:36.859Z,10.23
2018-05-19T09:17:39.389Z,10.47
2018-05-19T09:18:42.056Z,10.50
2018-05-19T09:19:44.574Z,10.77
2018-05-19T09:20:47.074Z,10.50
2018-05-19T09:21:50.365Z,10.63
2018-05-19T09:22:53.681Z,10.77
2018-05-19T09:23:56.201Z,9.90
2018-05-19T09:24:58.728Z,10.53
2018-05-19T09:26:01.211Z,10.43
2018-05-19T09:27:03.770Z,10.10
2018-05-19T09:28:06.269Z,11.10
2018-05-19T09:29:08.774Z,11.27
2018-05-19T09:30:12.108Z,9.97
2018-05-19T09:31:14.629Z,12.07
2018-05-19T09:32:17.916Z,9.73
2018-05-19T09:33:20.428Z,10.23
2018-05-19T09:34:22.925Z,10.33
2018-05-19T09:35:25.437Z,9.90
2018-05-19T09:36:28.723Z,10.50
2018-05-19T09:37:32.011Z,10.53
2018-05-19T09:38:35.295Z,10.57
2018-05-19T09:39:38.568Z,11.53
2018-05-19T09:40:42.594Z,9.97
2018-05-19T09:41:45.854Z,10.53
2018-05-19T09:42:48.382Z,10.70
2018-05-19T09:43:50.902Z,11.17
2018-05-19T09:44:53.403Z,10.20
2018-05-19T09:45:55.928Z,11.27
2018-05-19T09:46:58.437Z,10.60
2018-05-19T09:48:00.987Z,10.67
2018-05-19T09:49:03.505Z,10.57
2018-05-19T09:50:06.043Z,11.00
2018-05-19T09:51:08.591Z,10.00
2018-05-19T09:52:11.155Z,11.63
2018-05-19T09:53:13.684Z,10.00
2018-05-19T09:54:16.207Z,10.70
2018-05-19T09:55:18.720Z,10.17
2018-05-19T09:56:21.232Z,10.80
2018-05-19T09:57:23.786Z,10.67
2018-05-19T09:58:26.294Z,10.97
2018-05-19T09:59:28.903Z,11.60
2018-05-19T10:00:31.315Z,11.70
2018-05-19T10:01:33.828Z,10.57
2018-05-19T10:02:37.119Z,11.87
2018-05-19T10:03:40.386Z,11.20
2018-05-19T10:04:42.986Z,11.60
2018-05-19T10:05:46.251Z,10.90
2018-05-19T10:06:48.756Z,11.50
2018-05-19T10:07:51.274Z,12.13
2018-05-19T10:08:53.774Z,11.73
2018-05-19T10:09:57.056Z,10.43
2018-05-19T10:11:00.364Z,10.57
2018-05-19T10:12:02.950Z,10.23
2018-05-19T10:13:05.446Z,10.60
2018-05-19T10:14:07.944Z,10.90
2018-05-19T10:15:10.484Z,10.40
2018-05-19T10:16:13.006Z,11.23
2018-05-19T10:17:16.288Z,10.70
2018-05-19T10:18:19.642Z,11.37
2018-05-19T10:19:22.159Z,11.37
2018-05-19T10:20:25.460Z,10.30
2018-05-19T10:21:27.997Z,10.47
2018-05-19T10:22:31.258Z,11.33
2018-05-19T10:23:34.099Z,11.03
2018-05-19T10:24:36.615Z,10.03
2018-05-19T10:25:39.179Z,11.33
2018-05-19T10:26:41.816Z,11.87
2018-05-19T10:27:44.355Z,11.13
2018-05-19T10:28:47.641Z,11.10
2018-05-19T10:29:50.182Z,11.23
2018-05-19T10:30:52.747Z,10.17
2018-05-19T10:31:55.263Z,10.90
2018-05-19T10:32:58.578Z,11.03
2018-05-19T10:34:01.084Z,10.60
2018-05-19T10:35:03.627Z,10.50
2018-05-19T10:36:06.291Z,10.87
2018-05-19T10:37:08.821Z,11.00
2018-05-19T10:38:11.521Z,11.57
2018-05-19T10:39:14.794Z,12.30
2018-05-19T10:40:18.079Z,12.20
2018-05-19T10:41:20.625Z,11.63
2018-05-19T10:42:23.170Z,10.93
2018-05-19T10:43:25.676Z,10.80
2018-05-19T10:44:28.211Z,11.07
2018-05-19T10:45:30.730Z,10.23
2018-05-19T10:46:34.020Z,11.27
2018-05-19T10:47:36.573Z,11.47
2018-05-19T10:48:39.122Z,9.70
2018-05-19T10:49:42.608Z,10.60
2018-05-19T10:50:45.151Z,12.03
2018-05-19T10:51:48.452Z,11.07
2018-05-19T10:52:50.958Z,11.27
2018-05-19T10:53:53.495Z,11.50
2018-05-19T10:54:56.059Z,10.53
2018-05-19T10:55:58.735Z,12.27
2018-05-19T10:57:01.245Z,11.17
2018-05-19T10:58:03.821Z,11.43
2018-05-19T10:59:06.372Z,10.97
2018-05-19T11:00:08.978Z,11.33
2018-05-19T11:01:11.532Z,11.80
2018-05-19T11:02:14.042Z,10.40
2018-05-19T11:03:17.349Z,10.70
2018-05-19T11:04:20.035Z,12.20
2018-05-19T11:05:22.557Z,10.20
2018-05-19T11:06:25.067Z,11.17
2018-05-19T11:07:27.627Z,11.00
2018-05-19T11:08:30.889Z,12.40
2018-05-19T11:09:33.396Z,11.27
2018-05-19T11:10:35.969Z,11.90
2018-05-19T11:11:38.518Z,12.53
2018-05-19T11:12:41.800Z,11.80
2018-05-19T11:13:44.323Z,11.23
2018-05-19T11:14:46.852Z,13.20
2018-05-19T11:15:50.117Z,12.37
2018-05-19T11:16:52.637Z,11.43
2018-05-19T11:17:55.266Z,12.60
2018-05-19T11:18:58.553Z,11.93
2018-05-19T11:20:01.849Z,12.70
2018-05-19T11:21:05.136Z,12.00
2018-05-19T11:22:08.428Z,11.13
2018-05-19T11:23:11.811Z,11.70
2018-05-19T11:24:14.309Z,11.60
2018-05-19T11:25:16.883Z,11.50
2018-05-19T11:26:19.399Z,11.83
2018-05-19T11:27:22.698Z,11.63
2018-05-19T11:28:25.226Z,11.13
2018-05-19T11:29:27.730Z,11.70
2018-05-19T11:30:30.244Z,11.10
2018-05-19T11:31:33.520Z,11.97
2018-05-19T11:32:36.824Z,12.33
2018-05-19T11:33:39.367Z,11.57
2018-05-19T11:34:41.949Z,12.33
2018-05-19T11:35:45.230Z,11.30
2018-05-19T11:36:47.753Z,11.10
2018-05-19T11:37:50.274Z,13.47
2018-05-19T11:38:52.788Z,12.30
2018-05-19T11:39:55.313Z,11.40
2018-05-19T11:40:57.826Z,11.73
2018-05-19T11:42:00.329Z,10.63
2018-05-19T11:43:02.850Z,11.50
2018-05-19T11:44:05.384Z,11.67
2018-05-19T11:45:07.913Z,10.80
2018-05-19T11:46:10.470Z,11.43
2018-05-19T11:47:12.969Z,11.17
2018-05-19T11:48:15.481Z,10.67
2018-05-19T11:49:18.789Z,10.87
2018-05-19T11:50:22.088Z,12.53
2018-05-19T11:51:24.604Z,11.20
2018-05-19T11:52:27.115Z,11.53
2018-05-19T11:53:30.400Z,11.47
2018-05-19T11:54:33.709Z,10.23
2018-05-19T11:55:36.279Z,10.97
2018-05-19T11:56:38.845Z,11.13
2018-05-19T11:57:42.120Z,10.90
2018-05-19T11:58:45.411Z,10.97
2018-05-19T11:59:48.694Z,10.70
2018-05-19T12:00:51.198Z,11.63
2018-05-19T12:01:53.712Z,12.47
2018-05-19T12:02:56.221Z,11.67
2018-05-19T12:03:58.752Z,13.18
2018-05-19T12:05:01.322Z,11.90
2018-05-19T12:06:03.842Z,13.60
2018-05-19T12:07:06.369Z,11.90
2018-05-19T12:08:08.893Z,12.90
2018-05-19T12:09:11.536Z,11.70
2018-05-19T12:10:14.841Z,13.35
2018-05-19T12:11:17.360Z,11.18
2018-05-19T12:12:19.901Z,12.20
2018-05-19T12:13:23.170Z,11.07
2018-05-19T12:14:26.451Z,11.07
2018-05-19T12:15:29.773Z,12.60
2018-05-19T12:16:33.145Z,12.10
2018-05-19T12:17:35.676Z,13.20
2018-05-19T12:18:38.231Z,11.20
2018-05-19T12:19:40.737Z,13.00
2018-05-19T12:20:50.071Z,14.43
2018-05-19T12:21:52.569Z,14.23
2018-05-19T12:22:55.101Z,13.05
2018-05-19T12:23:57.603Z,13.38
2018-05-19T12:25:00.860Z,12.05
2018-05-19T12:26:03.433Z,12.20
2018-05-19T12:27:05.926Z,12.40
2018-05-19T12:28:09.228Z,12.07
2018-05-19T12:29:11.766Z,12.48
2018-05-19T12:30:15.050Z,12.27
2018-05-19T12:31:17.600Z,11.57
2018-05-19T12:32:20.105Z,11.20
2018-05-19T12:33:23.411Z,10.60
2018-05-19T12:34:25.962Z,10.82
2018-05-19T12:35:29.241Z,12.50
2018-05-19T12:36:32.550Z,11.80
2018-05-19T12:37:35.847Z,12.90
2018-05-19T12:38:38.406Z,11.85
2018-05-19T12:39:41.744Z,11.63
2018-05-19T12:40:44.293Z,11.23
2018-05-19T12:41:46.829Z,12.25
2018-05-19T12:42:49.366Z,10.95
2018-05-19T12:43:51.876Z,13.40
2018-05-19T12:44:54.498Z,13.30
2018-05-19T12:45:57.655Z,10.75
2018-05-19T12:47:01.091Z,12.60
2018-05-19T12:48:03.603Z,11.98
2018-05-19T12:49:08.938Z,12.10
2018-05-19T12:50:12.231Z,11.55
2018-05-19T12:51:15.512Z,12.00
2018-05-19T12:52:18.043Z,10.98
2018-05-19T12:53:20.579Z,13.00
2018-05-19T12:54:23.108Z,12.93
2018-05-19T12:55:25.608Z,12.02
2018-05-19T12:56:28.869Z,11.50
2018-05-19T12:57:31.390Z,11.57
2018-05-19T12:58:33.890Z,11.40
2018-05-19T12:59:36.395Z,11.98
2018-05-19T13:00:39.684Z,11.43
2018-05-19T13:01:42.992Z,13.00
2018-05-19T13:02:45.522Z,11.55
2018-05-19T13:03:48.053Z,11.70
2018-05-19T13:04:50.573Z,12.77
2018-05-19T13:05:53.092Z,11.05
2018-05-19T13:06:55.661Z,11.35
2018-05-19T13:07:58.257Z,10.90
2018-05-19T13:09:00.773Z,11.32
2018-05-19T13:10:04.087Z,10.90
2018-05-19T13:11:06.679Z,11.00
2018-05-19T13:12:09.956Z,11.75
2018-05-19T13:13:12.489Z,11.50
2018-05-19T13:14:15.797Z,11.52
2018-05-19T13:15:18.333Z,12.27
2018-05-19T13:16:20.873Z,10.60
2018-05-19T13:17:23.395Z,10.57
2018-05-19T13:18:26.675Z,11.20
2018-05-19T13:19:29.216Z,10.45
2018-05-19T13:20:31.742Z,10.45
2018-05-19T13:21:34.263Z,11.70
2018-05-19T13:22:36.788Z,10.93
2018-05-19T13:23:39.299Z,13.98
2018-05-19T13:24:41.840Z,10.77
2018-05-19T13:25:44.444Z,11.10
2018-05-19T13:26:46.958Z,12.20
2018-05-19T13:27:50.292Z,12.70
2018-05-19T13:28:52.827Z,13.10
2018-05-19T13:29:56.091Z,13.38
2018-05-19T13:30:58.607Z,12.68
2018-05-19T13:32:01.091Z,12.48
2018-05-19T13:33:03.627Z,12.90
2018-05-19T13:34:06.913Z,12.18
2018-05-19T13:35:09.439Z,12.10
2018-05-19T13:36:11.955Z,12.93
2018-05-19T13:37:15.234Z,12.13
2018-05-19T13:38:17.844Z,12.75
2018-05-19T13:39:20.363Z,14.10
2018-05-19T13:40:22.899Z,13.05
2018-05-19T13:41:25.448Z,13.48
2018-05-19T13:42:27.961Z,13.70
2018-05-19T13:43:30.467Z,14.35
2018-05-19T13:44:33.751Z,13.85
2018-05-19T13:45:37.047Z,13.82
2018-05-19T13:46:40.372Z,12.40
2018-05-19T13:47:43.628Z,12.73
2018-05-19T13:48:46.173Z,14.05
2018-05-19T13:49:59.062Z,13.50
2018-05-19T13:51:01.571Z,12.27
2018-05-19T13:52:04.848Z,12.55
2018-05-19T13:53:07.344Z,13.52